Time;durP1;ratioP1;P1;durP2;ratioP2;P2;SDS_P1;SDS_P2;PMS_P1;PMS_P2;Temp;Humidity;BMP_temperature;BMP_pressure;BME280_temperature;BME280_humidity;BME280_pressure;Samples;Min_cycle;Max_cycle;Signal;HPM_P1;HPM_P2
2022/10/08 00:00:11;;;;;;;18.00;12.40;;;;;;;11.39;100.00;99763.36;100706;1341;22893;-35
2022/10/08 00:02:36;;;;;;;20.60;11.60;;;;;;;11.37;100.00;99762.57;100647;1340;23033;-32
2022/10/08 00:05:02;;;;;;;18.90;13.50;;;;;;;11.43;100.00;99763.81;100701;1341;24476;-35
2022/10/08 00:07:28;;;;;;;21.80;11.70;;;;;;;11.46;100.00;99761.41;100696;1341;23234;-32
2022/10/08 00:09:53;;;;;;;14.60;11.50;;;;;;;11.44;100.00;99753.80;100636;1341;22999;-36
2022/10/08 00:12:19;;;;;;;17.80;11.90;;;;;;;11.42;100.00;99752.95;100611;1339;23247;-38
2022/10/08 00:14:45;;;;;;;18.50;10.80;;;;;;;11.36;100.00;99749.64;100646;1341;22518;-34
2022/10/08 00:17:11;;;;;;;17.50;12.90;;;;;;;11.30;100.00;99749.66;100704;1340;22765;-38
2022/10/08 00:19:36;;;;;;;21.70;14.10;;;;;;;11.25;100.00;99747.34;100625;1333;22516;-32
2022/10/08 00:22:03;;;;;;;19.50;14.30;;;;;;;11.25;100.00;99745.90;100656;1333;22609;-35
2022/10/08 00:24:30;;;;;;;17.50;12.30;;;;;;;11.26;100.00;99740.48;100671;1341;24361;-32
2022/10/08 00:26:56;;;;;;;15.20;12.50;;;;;;;11.23;100.00;99736.73;100682;1341;23240;-35
2022/10/08 00:29:21;;;;;;;16.50;11.50;;;;;;;11.20;100.00;99730.25;100710;1341;22765;-32
2022/10/08 00:31:48;;;;;;;13.10;9.20;;;;;;;11.20;100.00;99730.09;100607;1339;22715;-35
2022/10/08 00:34:16;;;;;;;20.00;10.70;;;;;;;11.20;100.00;99728.61;100636;1333;23024;-33
2022/10/08 00:36:42;;;;;;;14.80;12.10;;;;;;;11.24;100.00;99726.50;100749;1327;22787;-35
2022/10/08 00:39:12;;;;;;;16.60;11.90;;;;;;;11.24;100.00;99724.41;100676;1329;22820;-35
2022/10/08 00:41:40;;;;;;;13.80;11.20;;;;;;;11.25;100.00;99720.55;100673;1339;22569;-38
2022/10/08 00:44:13;;;;;;;24.00;12.00;;;;;;;11.23;100.00;99717.34;100644;1341;24483;-34
2022/10/08 00:46:40;;;;;;;24.20;9.80;;;;;;;11.27;100.00;99717.08;100635;1341;25553;-33
2022/10/08 00:49:15;;;;;;;15.70;10.50;;;;;;;11.26;100.00;99708.42;100605;1341;23164;-33
2022/10/08 00:51:43;;;;;;;13.20;11.80;;;;;;;11.24;100.00;99708.08;100695;1326;24412;-37
2022/10/08 00:54:09;;;;;;;15.90;9.90;;;;;;;11.25;100.00;99704.37;100652;1333;23116;-36
2022/10/08 00:56:34;;;;;;;20.40;12.90;;;;;;;11.26;100.00;99702.80;100629;1341;23260;-33
2022/10/08 00:59:01;;;;;;;14.50;11.10;;;;;;;11.26;100.00;99698.91;100664;1333;24411;-33
2022/10/08 01:01:28;;;;;;;16.60;11.70;;;;;;;11.23;100.00;99699.39;100677;1339;23091;-33
2022/10/08 01:03:55;;;;;;;18.40;10.50;;;;;;;11.22;100.00;99697.94;100660;1333;24372;-32
2022/10/08 01:06:26;;;;;;;15.60;10.70;;;;;;;11.21;100.00;99695.33;100647;1341;23248;-35
2022/10/08 01:08:57;;;;;;;11.40;9.30;;;;;;;11.20;100.00;99690.64;100716;1340;22632;-38
2022/10/08 01:11:31;;;;;;;11.40;9.70;;;;;;;11.18;100.00;99690.87;100700;1341;23255;-33
2022/10/08 01:14:19;;;;;;;14.00;10.10;;;;;;;11.13;100.00;99688.96;100669;1338;24250;-34
2022/10/08 01:16:53;;;;;;;20.50;12.60;;;;;;;11.12;100.00;99687.51;100645;1341;24383;-33
2022/10/08 01:19:25;;;;;;;16.10;10.80;;;;;;;11.13;100.00;99688.22;100651;1339;22523;-33
2022/10/08 01:21:54;;;;;;;13.80;11.40;;;;;;;11.07;100.00;99681.05;100660;1336;24358;-37
2022/10/08 01:24:21;;;;;;;16.20;13.40;;;;;;;11.04;100.00;99683.00;100669;1339;24501;-37
2022/10/08 01:26:47;;;;;;;16.00;11.10;;;;;;;11.03;100.00;99683.89;100670;1341;22775;-34
2022/10/08 01:29:16;;;;;;;14.10;10.30;;;;;;;11.00;100.00;99680.65;100700;1339;23131;-37
2022/10/08 01:31:44;;;;;;;17.30;11.00;;;;;;;10.95;100.00;99682.17;100630;1341;24303;-36
2022/10/08 01:34:16;;;;;;;20.00;11.30;;;;;;;10.98;100.00;99681.00;100706;1328;24372;-34
2022/10/08 01:36:43;;;;;;;14.40;10.20;;;;;;;11.02;100.00;99680.91;100723;1341;22509;-34
2022/10/08 01:39:11;;;;;;;19.30;11.10;;;;;;;11.10;100.00;99680.45;100735;1340;22713;-37
2022/10/08 01:41:36;;;;;;;23.70;12.10;;;;;;;11.12;100.00;99676.88;100668;1339;22765;-35
2022/10/08 01:44:06;;;;;;;21.00;12.10;;;;;;;11.11;100.00;99676.33;100602;1339;22827;-32
2022/10/08 01:46:31;;;;;;;16.70;11.70;;;;;;;11.11;100.00;99673.84;100667;1333;22718;-35
2022/10/08 01:49:02;;;;;;;21.30;14.10;;;;;;;11.09;100.00;99670.73;100571;1342;22888;-32
2022/10/08 01:51:31;;;;;;;14.50;9.80;;;;;;;11.11;100.00;99670.79;100643;1333;22741;-35
2022/10/08 01:54:00;;;;;;;16.10;13.10;;;;;;;11.11;100.00;99669.23;100647;1337;24517;-36
2022/10/08 01:56:26;;;;;;;19.40;9.90;;;;;;;11.07;100.00;99668.34;100705;1339;24383;-35
2022/10/08 01:58:53;;;;;;;13.40;11.90;;;;;;;11.06;100.00;99673.05;100613;1341;22751;-35
2022/10/08 02:01:23;;;;;;;20.30;11.70;;;;;;;11.10;100.00;99673.13;100628;1341;22509;-35
2022/10/08 02:06:17;;;;;;;15.80;12.80;;;;;;;10.99;100.00;99669.67;100655;1340;22763;-36
2022/10/08 02:08:43;;;;;;;10.40;8.40;;;;;;;10.88;100.00;99672.23;100634;1339;24377;-37
2022/10/08 02:11:08;;;;;;;13.30;9.80;;;;;;;10.77;100.00;99674.68;100623;1337;22750;-34
2022/10/08 02:13:34;;;;;;;10.70;8.40;;;;;;;10.71;100.00;99674.40;100688;1340;23237;-37
2022/10/08 02:16:05;;;;;;;15.70;12.40;;;;;;;10.65;100.00;99678.73;100661;1342;24398;-33
2022/10/08 02:18:38;;;;;;;7.00;6.40;;;;;;;10.62;100.00;99681.35;100671;1332;22518;-32
2022/10/08 02:21:08;;;;;;;12.90;9.90;;;;;;;10.61;100.00;99682.58;100697;1340;25292;-31
2022/10/08 02:23:39;;;;;;;9.60;7.00;;;;;;;10.54;100.00;99683.81;100631;1337;23026;-32
2022/10/08 02:26:08;;;;;;;13.10;9.00;;;;;;;10.47;100.00;99686.16;100698;1333;22748;-35
2022/10/08 02:28:42;;;;;;;20.20;9.10;;;;;;;10.41;100.00;99681.30;100638;1339;23102;-32
2022/10/08 02:31:08;;;;;;;;;;;;;;;10.37;100.00;99680.39;100677;1341;22485;-33
2022/10/08 02:33:36;;;;;;;12.00;9.90;;;;;;;10.31;100.00;99676.64;100701;1341;24361;-37
2022/10/08 02:36:03;;;;;;;16.40;11.00;;;;;;;10.25;100.00;99674.08;100696;1336;24485;-34
2022/10/08 02:38:32;;;;;;;11.00;8.50;;;;;;;10.22;100.00;99669.65;100655;1326;22753;-32
2022/10/08 02:40:59;;;;;;;18.80;10.80;;;;;;;10.18;100.00;99670.58;100667;1333;22744;-32
2022/10/08 02:43:28;;;;;;;10.60;7.90;;;;;;;10.13;100.00;99672.52;100706;1340;22875;-34
2022/10/08 02:45:57;;;;;;;26.40;12.20;;;;;;;10.17;100.00;99675.82;100725;1341;24978;-33
2022/10/08 02:48:28;;;;;;;9.40;8.00;;;;;;;10.17;100.00;99687.09;100684;1341;22747;-33
2022/10/08 02:50:54;;;;;;;29.20;12.30;;;;;;;10.12;100.00;99681.79;100647;1341;22618;-34
2022/10/08 02:53:19;;;;;;;12.20;9.00;;;;;;;10.13;100.00;99686.16;100598;1341;22891;-35
2022/10/08 02:55:48;;;;;;;28.10;13.30;;;;;;;10.14;100.00;99690.55;100599;1333;23244;-36
2022/10/08 02:58:14;;;;;;;24.90;14.90;;;;;;;10.22;100.00;99690.38;100576;1335;23222;-36
2022/10/08 03:00:44;;;;;;;13.00;10.20;;;;;;;10.28;100.00;99691.14;100666;1330;22751;-37
2022/10/08 03:03:12;;;;;;;12.30;8.90;;;;;;;10.30;100.00;99692.55;100668;1333;22877;-37
2022/10/08 03:05:39;;;;;;;15.30;11.40;;;;;;;10.32;100.00;99688.02;100681;1336;23116;-32
2022/10/08 03:08:06;;;;;;;25.80;15.30;;;;;;;10.36;100.00;99684.13;100585;1333;24583;-32
2022/10/08 03:10:33;;;;;;;27.40;14.10;;;;;;;10.39;100.00;99685.73;100526;1340;22606;-32
2022/10/08 03:13:00;;;;;;;24.60;14.40;;;;;;;10.41;100.00;99682.38;100683;1333;22565;-32
2022/10/08 03:15:25;;;;;;;31.90;13.60;;;;;;;10.42;100.00;99684.24;100745;1326;24439;-36
2022/10/08 03:17:51;;;;;;;21.80;15.40;;;;;;;10.45;100.00;99681.11;100684;1333;23233;-37
2022/10/08 03:20:17;;;;;;;16.80;13.80;;;;;;;10.53;100.00;99681.11;100620;1340;24383;-34
2022/10/08 03:22:42;;;;;;;24.40;17.20;;;;;;;10.58;100.00;99684.02;100283;1339;589754;-35
2022/10/08 03:25:08;;;;;;;29.20;14.30;;;;;;;10.66;100.00;99684.83;100673;1340;24350;-35
2022/10/08 03:27:34;;;;;;;17.20;13.80;;;;;;;10.69;100.00;99686.77;100682;1341;24524;-36
2022/10/08 03:29:59;;;;;;;19.30;13.40;;;;;;;10.69;100.00;99685.00;100666;1333;24390;-32
2022/10/08 03:32:25;;;;;;;23.80;16.50;;;;;;;10.67;100.00;99684.70;100673;1341;22736;-33
2022/10/08 03:34:51;;;;;;;14.10;10.60;;;;;;;10.63;100.00;99684.40;100612;1339;22582;-32
2022/10/08 03:37:18;;;;;;;22.90;13.10;;;;;;;10.57;100.00;99686.02;100620;1333;23242;-35
2022/10/08 03:39:43;;;;;;;12.60;9.20;;;;;;;10.52;100.00;99684.69;100621;1341;23103;-33
2022/10/08 03:42:09;;;;;;;21.00;15.00;;;;;;;10.47;100.00;99685.95;100658;1339;24349;-36
2022/10/08 03:44:34;;;;;;;16.30;11.90;;;;;;;10.42;100.00;99685.61;100625;1335;24501;-37
2022/10/08 03:47:00;;;;;;;16.50;13.80;;;;;;;10.40;100.00;99685.21;100676;1341;23682;-33
2022/10/08 03:49:25;;;;;;;18.50;13.40;;;;;;;10.33;100.00;99681.65;100639;1341;22787;-32
2022/10/08 03:51:51;;;;;;;23.70;12.00;;;;;;;10.31;100.00;99679.39;100616;1333;23174;-32
2022/10/08 03:54:16;;;;;;;23.40;12.20;;;;;;;10.28;100.00;99682.48;100645;1334;23327;-35
2022/10/08 03:56:42;;;;;;;19.80;13.10;;;;;;;10.31;100.00;99688.13;100624;1339;24384;-35
2022/10/08 03:59:07;;;;;;;18.20;10.80;;;;;;;10.31;100.00;99689.77;100627;1341;24418;-33
2022/10/08 04:01:33;;;;;;;16.70;13.10;;;;;;;10.33;100.00;99686.77;100610;1339;24336;-33
2022/10/08 04:03:58;;;;;;;20.90;12.90;;;;;;;10.35;100.00;99687.09;100629;1341;23076;-33
2022/10/08 04:06:24;;;;;;;22.60;16.80;;;;;;;10.36;100.00;99688.63;100672;1333;23242;-33
2022/10/08 04:08:49;;;;;;;20.70;14.70;;;;;;;10.40;100.00;99686.48;100647;1340;22876;-35
2022/10/08 04:11:16;;;;;;;28.90;16.30;;;;;;;10.41;100.00;99690.34;100673;1341;24355;-34
2022/10/08 04:13:41;;;;;;;13.50;11.70;;;;;;;10.42;100.00;99690.73;100649;1341;23892;-34
2022/10/08 04:16:10;;;;;;;17.40;14.90;;;;;;;10.43;100.00;99693.90;100708;1338;22506;-35
2022/10/08 04:18:36;;;;;;;22.20;16.10;;;;;;;10.51;100.00;99694.27;100679;1333;23396;-32
2022/10/08 04:21:03;;;;;;;16.20;13.80;;;;;;;10.57;100.00;99695.33;100642;1341;22873;-35
2022/10/08 04:23:30;;;;;;;24.20;13.80;;;;;;;10.59;100.00;99696.80;100657;1340;23180;-35
2022/10/08 04:25:56;;;;;;;23.10;14.40;;;;;;;10.61;100.00;99698.48;100639;1340;24338;-32
2022/10/08 04:28:22;;;;;;;16.20;13.50;;;;;;;10.61;100.00;99698.02;100650;1341;23093;-35
2022/10/08 04:30:55;;;;;;;32.30;15.40;;;;;;;10.59;100.00;99697.38;100632;1342;24401;-37
2022/10/08 04:33:20;;;;;;;17.80;11.70;;;;;;;10.57;100.00;99697.61;100667;1341;25366;-33
2022/10/08 04:35:46;;;;;;;19.40;13.30;;;;;;;10.58;100.00;99696.95;100592;1342;23228;-35
2022/10/08 04:38:11;;;;;;;17.80;13.70;;;;;;;10.62;100.00;99693.07;100628;1332;22763;-41
2022/10/08 04:40:37;;;;;;;19.10;14.70;;;;;;;10.68;100.00;99694.30;100601;1334;22763;-34
2022/10/08 04:43:02;;;;;;;20.10;16.20;;;;;;;10.75;100.00;99693.17;100663;1340;23111;-34
2022/10/08 04:45:28;;;;;;;22.20;15.60;;;;;;;10.83;100.00;99693.34;100653;1339;23230;-37
2022/10/08 04:47:53;;;;;;;20.70;15.00;;;;;;;10.90;100.00;99692.38;100598;1340;22761;-32
2022/10/08 04:50:19;;;;;;;25.00;17.50;;;;;;;10.94;100.00;99697.46;100603;1334;22763;-35
2022/10/08 04:52:44;;;;;;;27.30;15.50;;;;;;;10.94;100.00;99696.92;100600;1341;24305;-35
2022/10/08 04:55:10;;;;;;;23.00;15.20;;;;;;;10.97;100.00;99687.44;100624;1340;22850;-32
2022/10/08 04:57:35;;;;;;;22.70;14.60;;;;;;;11.00;100.00;99691.52;100681;1340;24882;-33
2022/10/08 05:00:02;;;;;;;19.90;15.10;;;;;;;11.07;100.00;99686.20;100630;1340;23124;-33
2022/10/08 05:02:28;;;;;;;21.90;15.20;;;;;;;11.08;100.00;99682.79;100618;1342;23106;-33
2022/10/08 05:04:53;;;;;;;20.60;13.70;;;;;;;11.10;100.00;99683.64;100667;1341;23392;-36
2022/10/08 05:07:19;;;;;;;21.20;13.30;;;;;;;11.09;100.00;99679.79;100613;1340;23183;-36
2022/10/08 05:09:44;;;;;;;24.30;15.40;;;;;;;11.11;100.00;99681.04;100676;1333;24438;-33
2022/10/08 05:12:10;;;;;;;14.70;10.60;;;;;;;11.14;100.00;99678.27;100644;1333;22791;-34
2022/10/08 05:14:35;;;;;;;18.90;13.40;;;;;;;11.22;100.00;99672.04;100649;1339;22851;-34
2022/10/08 05:17:01;;;;;;;23.90;14.90;;;;;;;11.26;100.00;99666.81;100688;1341;23020;-37
2022/10/08 05:19:26;;;;;;;19.20;13.70;;;;;;;11.33;100.00;99663.02;100653;1342;22858;-32
2022/10/08 05:21:52;;;;;;;21.00;13.10;;;;;;;11.36;100.00;99661.20;100662;1336;24402;-35
2022/10/08 05:24:17;;;;;;;13.90;12.20;;;;;;;11.39;100.00;99656.13;100613;1339;23082;-35
2022/10/08 05:26:43;;;;;;;19.00;13.40;;;;;;;11.47;100.00;99659.73;100677;1340;22796;-35
2022/10/08 05:29:08;;;;;;;18.90;13.40;;;;;;;11.50;100.00;99655.16;100628;1325;26675;-33
2022/10/08 05:31:34;;;;;;;15.50;11.40;;;;;;;11.53;100.00;99655.56;100649;1325;24925;-34
2022/10/08 05:34:00;;;;;;;22.60;13.50;;;;;;;11.58;100.00;99657.25;100629;1341;24387;-33
2022/10/08 05:36:28;;;;;;;16.50;13.20;;;;;;;11.66;100.00;99654.98;100604;1341;24485;-33
2022/10/08 05:38:55;;;;;;;13.20;10.50;;;;;;;11.76;100.00;99650.90;100664;1339;22893;-33
2022/10/08 05:41:23;;;;;;;14.10;9.50;;;;;;;11.87;100.00;99648.39;100624;1340;24382;-34
2022/10/08 05:43:49;;;;;;;21.80;14.70;;;;;;;11.93;100.00;99639.18;100669;1340;22818;-34
2022/10/08 05:46:14;;;;;;;17.10;13.10;;;;;;;12.01;100.00;99635.24;100616;1339;24460;-34
2022/10/08 05:48:40;;;;;;;18.10;11.80;;;;;;;12.05;100.00;99638.26;100669;1341;23228;-36
2022/10/08 05:51:08;;;;;;;12.90;11.60;;;;;;;12.10;100.00;99642.29;100657;1336;24450;-33
2022/10/08 05:53:35;;;;;;;19.40;10.50;;;;;;;12.20;100.00;99647.05;100699;1336;24368;-33
2022/10/08 05:56:01;;;;;;;12.80;10.40;;;;;;;12.28;100.00;99645.60;100617;1339;23211;-34
2022/10/08 05:58:27;;;;;;;12.30;9.70;;;;;;;12.36;100.00;99647.54;100675;1333;23091;-36
2022/10/08 06:00:58;;;;;;;14.50;11.30;;;;;;;12.46;100.00;99650.75;100696;1340;25075;-36
2022/10/08 06:03:23;;;;;;;19.30;12.40;;;;;;;12.56;100.00;99647.71;100656;1339;24372;-37
2022/10/08 06:05:49;;;;;;;14.50;8.50;;;;;;;12.71;100.00;99638.46;100646;1331;22718;-33
2022/10/08 06:08:14;;;;;;;13.00;11.50;;;;;;;12.76;100.00;99631.42;100585;1341;24573;-35
2022/10/08 06:10:48;;;;;;;22.30;13.10;;;;;;;12.80;100.00;99629.89;100626;1340;22876;-34
2022/10/08 06:13:14;;;;;;;10.90;9.80;;;;;;;12.88;100.00;99624.34;100677;1341;22581;-33
2022/10/08 06:15:39;;;;;;;12.60;10.40;;;;;;;12.91;100.00;99620.88;100640;1341;22575;-36
2022/10/08 06:18:05;;;;;;;16.80;11.70;;;;;;;12.98;100.00;99619.74;100619;1333;25236;-36
2022/10/08 06:20:31;;;;;;;24.00;11.60;;;;;;;13.01;100.00;99620.16;100626;1340;26608;-33
2022/10/08 06:22:56;;;;;;;9.20;8.30;;;;;;;13.06;100.00;99621.61;100629;1341;24299;-34
2022/10/08 06:25:22;;;;;;;14.80;10.10;;;;;;;13.11;100.00;99615.69;100650;1339;22752;-36
2022/10/08 06:27:47;;;;;;;16.10;11.30;;;;;;;13.21;100.00;99615.53;100625;1341;22761;-33
2022/10/08 06:30:13;;;;;;;14.70;10.60;;;;;;;13.25;100.00;99611.60;100637;1340;22879;-36
2022/10/08 06:32:39;;;;;;;12.10;10.90;;;;;;;13.26;100.00;99613.77;100643;1340;22741;-33
2022/10/08 06:35:05;;;;;;;26.50;11.10;;;;;;;13.31;100.00;99611.69;100652;1340;22759;-36
2022/10/08 06:37:30;;;;;;;14.80;10.70;;;;;;;13.38;100.00;99610.52;100647;1333;23108;-36
2022/10/08 06:39:56;;;;;;;13.40;10.20;;;;;;;13.48;100.00;99613.54;100674;1333;24491;-38
2022/10/08 06:42:21;;;;;;;10.90;9.80;;;;;;;13.51;100.00;99618.02;100663;1339;25501;-34
2022/10/08 06:44:47;;;;;;;14.00;10.20;;;;;;;13.56;100.00;99618.29;100590;1341;24405;-34
2022/10/08 06:47:12;;;;;;;11.50;10.20;;;;;;;13.58;100.00;99615.09;100681;1333;22920;-37
2022/10/08 06:49:39;;;;;;;13.10;9.70;;;;;;;13.56;100.00;99621.20;100643;1341;23095;-36
2022/10/08 06:52:05;;;;;;;14.50;9.50;;;;;;;13.57;100.00;99623.10;100630;1333;23224;-36
2022/10/08 06:54:31;;;;;;;11.00;9.60;;;;;;;13.56;100.00;99618.13;100626;1340;23106;-33
2022/10/08 06:56:56;;;;;;;14.30;9.70;;;;;;;13.57;100.00;99617.86;100644;1340;24472;-36
2022/10/08 06:59:22;;;;;;;9.70;8.50;;;;;;;13.60;100.00;99619.41;100620;1335;23106;-36
2022/10/08 07:01:47;;;;;;;12.90;10.00;;;;;;;13.63;100.00;99616.61;100657;1341;24372;-38
2022/10/08 07:04:13;;;;;;;10.50;9.40;;;;;;;13.71;100.00;99606.55;100626;1340;22758;-34
2022/10/08 07:06:38;;;;;;;11.80;9.60;;;;;;;13.77;100.00;99610.35;100657;1341;23243;-38
2022/10/08 07:09:05;;;;;;;12.80;9.80;;;;;;;13.79;100.00;99615.36;100713;1341;25240;-33
2022/10/08 07:11:32;;;;;;;10.50;8.90;;;;;;;13.84;100.00;99616.98;100617;1334;22761;-35
2022/10/08 07:13:58;;;;;;;11.10;10.10;;;;;;;13.93;100.00;99616.04;100644;1339;24362;-36
2022/10/08 07:16:24;;;;;;;10.50;9.10;;;;;;;14.05;100.00;99616.45;100692;1341;23222;-34
2022/10/08 07:18:51;;;;;;;15.00;9.90;;;;;;;14.14;100.00;99611.89;100641;1341;25353;-34
2022/10/08 07:21:18;;;;;;;8.80;7.00;;;;;;;14.23;100.00;99610.14;100655;1340;23115;-36
2022/10/08 07:23:43;;;;;;;12.00;9.60;;;;;;;14.37;100.00;99609.61;100691;1339;24530;-34
2022/10/08 07:26:12;;;;;;;16.40;10.80;;;;;;;14.53;100.00;99605.46;100678;1341;22725;-33
2022/10/08 07:28:40;;;;;;;18.70;11.20;;;;;;;14.72;100.00;99596.48;100786;1341;22867;-36
2022/10/08 07:31:11;;;;;;;10.70;8.20;;;;;;;14.96;100.00;99589.07;100671;1333;24486;-35
2022/10/08 07:33:39;;;;;;;13.80;9.80;;;;;;;15.01;100.00;99595.32;100676;1339;23222;-36
2022/10/08 07:36:09;;;;;;;7.60;6.50;;;;;;;15.05;100.00;99591.79;100645;1341;22506;-34
2022/10/08 07:38:35;;;;;;;13.20;9.50;;;;;;;15.25;100.00;99595.28;100742;1341;22523;-34
2022/10/08 07:41:00;;;;;;;17.60;9.50;;;;;;;15.23;100.00;99588.84;100726;1341;24372;-33
2022/10/08 07:43:26;;;;;;;15.10;7.50;;;;;;;15.34;100.00;99593.52;100642;1341;26060;-34
2022/10/08 07:45:51;;;;;;;7.70;6.70;;;;;;;15.25;100.00;99593.12;100617;1341;23102;-36
2022/10/08 07:48:18;;;;;;;9.60;8.70;;;;;;;15.36;100.00;99591.85;100676;1339;24305;-36
2022/10/08 07:50:45;;;;;;;8.30;7.20;;;;;;;15.18;100.00;99592.97;100619;1333;23106;-34
2022/10/08 07:53:11;;;;;;;9.40;8.10;;;;;;;15.28;100.00;99593.16;100710;1339;22814;-36
2022/10/08 07:55:36;;;;;;;12.70;9.00;;;;;;;15.29;100.00;99595.04;100684;1336;24467;-36
2022/10/08 07:58:02;;;;;;;8.90;7.70;;;;;;;15.38;100.00;99596.20;100632;1341;23244;-34
2022/10/08 08:00:28;;;;;;;13.90;10.50;;;;;;;15.43;100.00;99595.15;100602;1341;23244;-36
2022/10/08 08:02:53;;;;;;;14.80;8.00;;;;;;;15.52;100.00;99599.27;100635;1333;23164;-37
2022/10/08 08:05:19;;;;;;;9.20;8.00;;;;;;;15.56;100.00;99594.31;100616;1341;24437;-35
2022/10/08 08:07:44;;;;;;;12.80;10.70;;;;;;;15.66;100.00;99594.77;100648;1332;23539;-33
2022/10/08 08:10:10;;;;;;;11.40;8.70;;;;;;;15.80;99.54;99596.83;100690;1341;22817;-35
2022/10/08 08:12:35;;;;;;;22.80;9.10;;;;;;;15.86;98.13;99594.31;100680;1334;24355;-36
2022/10/08 08:15:01;;;;;;;9.90;8.90;;;;;;;15.89;98.67;99591.51;100635;1341;23236;-36
2022/10/08 08:17:26;;;;;;;9.70;8.80;;;;;;;15.86;97.52;99591.23;100661;1333;25163;-34
2022/10/08 08:19:52;;;;;;;10.00;7.90;;;;;;;15.78;98.92;99594.94;100671;1337;23363;-34
2022/10/08 08:22:17;;;;;;;9.90;7.50;;;;;;;15.82;99.24;99595.27;100672;1341;22527;-34
2022/10/08 08:24:43;;;;;;;20.60;8.20;;;;;;;15.99;98.72;99592.20;100624;1339;24430;-34
2022/10/08 08:27:08;;;;;;;11.70;7.70;;;;;;;15.98;99.22;99591.66;100602;1339;22713;-34
2022/10/08 08:29:37;;;;;;;13.10;9.20;;;;;;;16.01;98.32;99588.91;100646;1341;22510;-36
2022/10/08 08:32:02;;;;;;;15.40;10.70;;;;;;;16.04;98.84;99590.42;100655;1333;24353;-34
2022/10/08 08:34:29;;;;;;;14.00;9.20;;;;;;;16.17;97.60;99584.58;100625;1341;23244;-34
2022/10/08 08:36:55;;;;;;;10.30;8.80;;;;;;;16.24;97.38;99582.60;100673;1341;25633;-35
2022/10/08 08:39:23;;;;;;;15.60;9.70;;;;;;;16.31;97.35;99578.46;100660;1341;24450;-37
2022/10/08 08:41:56;;;;;;;17.80;10.50;;;;;;;16.54;95.85;99572.56;100661;1341;24383;-37
2022/10/08 08:44:25;;;;;;;9.40;8.40;;;;;;;16.70;94.71;99574.21;100645;1341;25478;-35
2022/10/08 08:46:55;;;;;;;9.10;8.20;;;;;;;16.96;94.43;99573.16;100709;1340;23090;-34
2022/10/08 08:49:25;;;;;;;10.70;6.60;;;;;;;17.18;93.57;99570.32;100730;1332;24383;-37
2022/10/08 08:51:51;;;;;;;10.20;8.10;;;;;;;17.54;91.63;99578.37;100696;1333;22761;-35
2022/10/08 08:54:17;;;;;;;8.20;6.90;;;;;;;17.88;90.03;99576.17;100665;1339;23107;-37
2022/10/08 08:56:43;;;;;;;7.40;6.10;;;;;;;18.19;88.26;99573.65;100666;1334;22708;-36
2022/10/08 08:59:31;;;;;;;9.90;6.10;;;;;;;18.25;87.17;99573.07;100654;1333;22726;-35
2022/10/08 09:01:58;;;;;;;9.60;5.70;;;;;;;18.56;86.18;99569.30;100681;1340;24805;-37
2022/10/08 09:04:32;;;;;;;7.90;5.50;;;;;;;18.67;84.40;99572.92;100652;1342;22788;-37
2022/10/08 09:06:57;;;;;;;5.70;5.10;;;;;;;18.93;83.50;99570.51;100685;1339;23094;-37
2022/10/08 09:09:28;;;;;;;7.80;6.60;;;;;;;19.10;82.52;99571.42;100685;1341;23233;-38
2022/10/08 09:11:54;;;;;;;7.60;6.10;;;;;;;19.42;80.44;99567.23;100714;1341;23032;-36
2022/10/08 09:14:20;;;;;;;;;;;;;;;19.48;80.32;99569.83;100659;1341;22565;-35
2022/10/08 09:16:45;;;;;;;5.80;5.20;;;;;;;19.55;78.57;99579.86;100622;1319;22505;-36
2022/10/08 09:19:11;;;;;;;7.50;5.80;;;;;;;19.63;78.45;99576.26;100624;1333;22993;-38
2022/10/08 09:21:37;;;;;;;7.70;5.50;;;;;;;19.54;79.91;99572.63;100654;1340;23076;-37
2022/10/08 09:24:02;;;;;;;10.90;5.70;;;;;;;20.03;78.38;99566.25;100754;1339;24276;-39
2022/10/08 09:26:30;;;;;;;6.80;6.10;;;;;;;19.88;75.55;99563.95;100668;1339;22748;-38
2022/10/08 09:28:57;;;;;;;10.60;6.30;;;;;;;19.83;77.95;99568.14;100718;1341;23094;-37
2022/10/08 09:31:24;;;;;;;5.70;4.00;;;;;;;20.18;77.50;99569.44;100673;1342;22535;-39
2022/10/08 09:33:54;;;;;;;8.50;5.20;;;;;;;20.47;73.55;99568.50;100741;1339;22778;-35
2022/10/08 09:36:27;;;;;;;17.90;4.90;;;;;;;20.28;72.85;99570.33;100644;1334;24299;-37
2022/10/08 09:38:56;;;;;;;8.20;5.00;;;;;;;20.03;73.15;99567.14;100676;1341;25323;-37
2022/10/08 09:41:23;;;;;;;5.60;4.40;;;;;;;20.07;74.90;99564.84;100671;1341;23154;-35
2022/10/08 09:44:08;;;;;;;5.60;5.20;;;;;;;20.46;72.97;99566.10;100641;1341;22506;-35
2022/10/08 09:46:34;;;;;;;13.70;6.50;;;;;;;20.65;72.30;99565.75;100483;1342;24853;-35
2022/10/08 09:49:06;;;;;;;7.90;5.60;;;;;;;20.71;71.46;99562.04;100684;1340;22885;-35
2022/10/08 09:51:32;;;;;;;6.90;6.30;;;;;;;20.65;69.03;99567.31;100672;1342;22561;-37
2022/10/08 09:53:57;;;;;;;4.90;4.40;;;;;;;20.12;70.72;99566.04;100654;1342;22768;-37
2022/10/08 09:56:26;;;;;;;23.90;5.60;;;;;;;20.07;71.17;99566.91;100705;1333;23116;-37
2022/10/08 09:58:54;;;;;;;7.60;6.30;;;;;;;20.04;71.53;99568.73;100744;1340;25226;-35
2022/10/08 10:01:19;;;;;;;10.00;6.60;;;;;;;19.67;73.76;99567.72;100658;1342;22775;-40
2022/10/08 10:03:48;;;;;;;37.60;3.30;;;;;;;20.01;72.64;99562.48;100682;1340;22721;-34
2022/10/08 10:06:14;;;;;;;12.00;5.70;;;;;;;19.84;71.82;99563.30;100711;1338;24683;-34
2022/10/08 10:08:47;;;;;;;7.40;5.60;;;;;;;19.50;73.39;99564.95;100638;1333;24253;-34
2022/10/08 10:11:18;;;;;;;3.60;3.40;;;;;;;19.37;74.13;99566.83;100682;1342;22573;-34
2022/10/08 10:13:45;;;;;;;10.90;7.30;;;;;;;19.38;74.28;99569.35;100718;1342;22715;-34
2022/10/08 10:16:15;;;;;;;8.30;7.60;;;;;;;19.31;75.22;99566.26;100673;1331;24447;-34
2022/10/08 10:18:48;;;;;;;12.70;6.80;;;;;;;19.28;75.53;99569.00;100681;1342;25250;-37
2022/10/08 10:21:16;;;;;;;7.50;6.50;;;;;;;19.32;75.11;99566.66;100653;1332;22488;-37
2022/10/08 10:23:47;;;;;;;9.10;7.10;;;;;;;19.28;75.44;99567.13;100684;1338;23019;-36
2022/10/08 10:26:32;;;;;;;11.10;7.00;;;;;;;19.10;76.62;99565.39;100668;1332;22890;-34
2022/10/08 10:28:58;;;;;;;7.00;4.90;;;;;;;19.28;75.55;99560.98;100711;1342;24383;-37
2022/10/08 10:31:29;;;;;;;11.20;7.10;;;;;;;19.17;76.31;99559.02;100637;1343;22510;-36
2022/10/08 10:33:59;;;;;;;5.80;4.00;;;;;;;19.22;75.79;99555.72;100736;1340;22512;-36
2022/10/08 10:36:28;;;;;;;6.00;4.60;;;;;;;19.04;74.88;99558.81;100690;1333;22747;-36
2022/10/08 10:38:58;;;;;;;3.90;3.30;;;;;;;18.98;74.82;99557.09;100698;1343;24383;-38
2022/10/08 10:41:30;;;;;;;9.30;6.20;;;;;;;19.10;74.65;99550.24;100639;1342;23101;-37
2022/10/08 10:43:59;;;;;;;6.80;5.00;;;;;;;19.15;74.67;99549.08;100644;1341;25619;-36
2022/10/08 10:46:29;;;;;;;9.40;6.50;;;;;;;19.51;75.09;99550.47;100618;1342;23927;-34
2022/10/08 10:48:55;;;;;;;8.90;6.30;;;;;;;20.21;71.30;99539.08;100645;1341;22659;-36
2022/10/08 10:51:25;;;;;;;12.00;5.90;;;;;;;20.47;69.37;99539.42;100596;1342;22715;-34
2022/10/08 10:54:01;;;;;;;9.00;5.40;;;;;;;20.59;67.96;99536.43;100632;1323;22839;-35
2022/10/08 10:56:30;;;;;;;8.20;5.70;;;;;;;21.10;65.52;99530.84;100735;1344;22532;-37
2022/10/08 10:59:05;;;;;;;4.90;4.40;;;;;;;21.14;63.75;99528.25;100781;1328;24296;-37
2022/10/08 11:01:38;;;;;;;10.00;5.60;;;;;;;21.12;65.07;99525.77;100692;1341;25314;-37
2022/10/08 11:04:09;;;;;;;9.00;5.30;;;;;;;21.45;63.32;99525.08;100742;1340;24330;-37
2022/10/08 11:06:44;;;;;;;10.10;5.30;;;;;;;21.37;62.22;99518.91;100731;1340;26496;-37
2022/10/08 11:09:14;;;;;;;5.60;4.90;;;;;;;21.08;62.97;99520.77;100691;1334;22833;-36
2022/10/08 11:11:42;;;;;;;7.30;5.30;;;;;;;20.88;63.71;99519.60;100680;1334;22764;-35